createdAt,value
2022-11-28T00:01:25.263Z,21.33
2022-11-28T00:03:52.204Z,23.50
2022-11-28T00:06:19.483Z,25.37
2022-11-28T00:08:46.461Z,29.10
2022-11-28T00:11:15.881Z,24.73
2022-11-28T00:13:43.741Z,23.00
2022-11-28T00:16:21.519Z,24.27
2022-11-28T00:18:53.533Z,27.83
2022-11-28T00:21:20.971Z,26.57
2022-11-28T00:23:48.955Z,23.93
2022-11-28T00:26:23.496Z,28.40
2022-11-28T00:28:51.122Z,27.37
2022-11-28T00:31:27.666Z,23.50
2022-11-28T00:33:55.600Z,26.10
2022-11-28T00:36:23.462Z,25.63
2022-11-28T00:38:51.156Z,22.73
2022-11-28T00:41:23.679Z,27.07
2022-11-28T00:43:51.774Z,27.73
2022-11-28T00:46:20.514Z,24.50
2022-11-28T00:48:47.701Z,23.60
2022-11-28T00:51:19.294Z,22.00
2022-11-28T00:53:50.059Z,23.63
2022-11-28T00:56:19.787Z,21.90
2022-11-28T00:58:49.769Z,26.73
2022-11-28T01:01:23.196Z,22.33
2022-11-28T01:03:52.392Z,26.63
2022-11-28T01:06:23.997Z,23.80
2022-11-28T01:08:51.964Z,25.17
2022-11-28T01:11:19.490Z,25.57
2022-11-28T01:13:46.489Z,19.37
2022-11-28T01:16:13.588Z,22.03
2022-11-28T01:18:40.649Z,24.07
2022-11-28T01:21:07.993Z,23.17
2022-11-28T01:23:35.868Z,22.43
2022-11-28T01:26:06.765Z,21.87
2022-11-28T01:28:34.459Z,18.07
2022-11-28T01:31:09.413Z,18.60
2022-11-28T01:33:36.406Z,21.67
2022-11-28T01:36:03.482Z,20.47
2022-11-28T01:38:30.472Z,19.83
2022-11-28T01:40:57.996Z,21.93
2022-11-28T01:43:25.473Z,21.37
2022-11-28T01:45:52.708Z,21.87
2022-11-28T01:48:29.427Z,22.00
2022-11-28T01:51:00.079Z,23.27
2022-11-28T01:53:31.085Z,21.83
2022-11-28T01:56:02.400Z,25.10
2022-11-28T01:58:30.960Z,20.13
2022-11-28T02:00:58.483Z,22.33
2022-11-28T02:03:33.774Z,22.70
2022-11-28T02:06:00.948Z,24.60
2022-11-28T02:08:35.139Z,20.67
2022-11-28T02:11:29.022Z,20.83
2022-11-28T02:14:23.622Z,18.57
2022-11-28T02:16:50.476Z,20.60
2022-11-28T02:19:43.284Z,20.93
2022-11-28T02:22:34.732Z,20.17
2022-11-28T02:25:10.918Z,23.27
2022-11-28T02:28:01.391Z,22.35
2022-11-28T02:31:05.121Z,18.80
2022-11-28T02:33:55.222Z,21.30
2022-11-28T02:36:37.279Z,19.20
2022-11-28T02:39:30.230Z,17.83
2022-11-28T02:42:18.356Z,15.70
2022-11-28T02:44:59.045Z,16.40
2022-11-28T02:47:44.481Z,15.63
2022-11-28T02:50:22.115Z,13.10
2022-11-28T02:52:53.794Z,15.37
2022-11-28T02:55:21.530Z,15.03
2022-11-28T02:57:53.530Z,11.43
2022-11-28T03:00:31.593Z,13.53
2022-11-28T03:03:32.481Z,12.47
2022-11-28T03:06:19.050Z,14.60
2022-11-28T03:09:17.135Z,14.03
2022-11-28T03:14:53.844Z,18.07
2022-11-28T03:17:56.418Z,13.07
2022-11-28T03:20:26.686Z,13.93
2022-11-28T03:23:17.397Z,13.40
2022-11-28T03:25:56.501Z,18.20
2022-11-28T03:28:43.348Z,16.60
2022-11-28T03:31:15.887Z,18.17
2022-11-28T03:33:48.670Z,17.93
2022-11-28T03:36:21.003Z,18.73
2022-11-28T03:39:04.896Z,20.33
2022-11-28T03:41:38.586Z,16.70
2022-11-28T03:44:10.890Z,16.53
2022-11-28T03:46:45.326Z,18.03
2022-11-28T03:49:15.792Z,18.27
2022-11-28T03:51:53.115Z,20.73
2022-11-28T03:54:26.076Z,18.77
2022-11-28T03:56:55.931Z,15.73
2022-11-28T03:59:33.584Z,17.63
2022-11-28T04:02:22.321Z,17.10
2022-11-28T04:04:58.787Z,19.03
2022-11-28T04:07:43.035Z,18.25
2022-11-28T04:10:27.391Z,14.77
2022-11-28T04:12:59.437Z,16.37
2022-11-28T04:15:26.241Z,18.17
2022-11-28T04:18:13.700Z,19.27
2022-11-28T04:20:59.132Z,16.65
2022-11-28T04:23:27.787Z,20.00
2022-11-28T04:26:00.664Z,17.90
2022-11-28T04:28:31.592Z,19.73
2022-11-28T04:31:02.385Z,19.30
2022-11-28T04:33:33.197Z,17.00
2022-11-28T04:36:01.736Z,18.63
2022-11-28T04:38:31.387Z,16.70
2022-11-28T04:41:15.649Z,18.03
2022-11-28T04:43:50.087Z,23.97
2022-11-28T04:46:22.408Z,18.63
2022-11-28T04:48:49.406Z,18.97
2022-11-28T04:51:25.066Z,20.17
2022-11-28T04:54:10.837Z,23.57
2022-11-28T04:56:45.671Z,20.57
2022-11-28T04:59:14.587Z,20.37
2022-11-28T05:01:44.230Z,20.83
2022-11-28T05:04:12.582Z,20.37
2022-11-28T05:06:39.614Z,22.23
2022-11-28T05:09:07.020Z,20.90
2022-11-28T05:11:33.940Z,21.23
2022-11-28T05:14:00.871Z,19.83
2022-11-28T05:16:27.951Z,18.97
2022-11-28T05:18:54.888Z,19.80
2022-11-28T05:21:21.936Z,20.20
2022-11-28T05:23:49.165Z,19.20
2022-11-28T05:26:18.757Z,20.30
2022-11-28T05:28:47.740Z,18.00
2022-11-28T05:31:15.089Z,22.20
2022-11-28T05:33:42.098Z,22.27
2022-11-28T05:36:13.161Z,21.83
2022-11-28T05:38:40.964Z,18.20
2022-11-28T05:41:08.164Z,17.10
2022-11-28T05:43:35.330Z,25.73
2022-11-28T05:46:05.479Z,18.77
2022-11-28T05:48:32.416Z,21.97
2022-11-28T05:50:59.330Z,19.90
2022-11-28T05:53:26.277Z,19.37
2022-11-28T05:55:53.172Z,16.30
2022-11-28T05:58:20.037Z,18.37
2022-11-28T06:00:47.052Z,20.30
2022-11-28T06:03:14.055Z,21.17
2022-11-28T06:05:43.999Z,19.57
2022-11-28T06:08:12.484Z,19.43
2022-11-28T06:10:39.960Z,21.00
2022-11-28T06:13:07.064Z,18.57
2022-11-28T06:15:38.007Z,18.80
2022-11-28T06:18:06.351Z,21.27
2022-11-28T06:20:35.822Z,21.90
2022-11-28T06:23:02.829Z,19.47
2022-11-28T06:25:29.842Z,22.93
2022-11-28T06:27:56.877Z,22.53
2022-11-28T06:30:23.995Z,20.97
2022-11-28T06:32:50.897Z,26.03
2022-11-28T06:35:18.002Z,18.50
2022-11-28T06:37:44.874Z,21.10
2022-11-28T06:40:11.979Z,20.57
2022-11-28T06:42:39.412Z,23.23
2022-11-28T06:45:06.940Z,18.80
2022-11-28T06:47:33.922Z,19.23
2022-11-28T06:50:00.952Z,16.93
2022-11-28T06:52:29.023Z,18.43
2022-11-28T06:54:55.917Z,18.90
2022-11-28T06:57:23.059Z,20.53
2022-11-28T06:59:50.758Z,18.67
2022-11-28T07:02:17.722Z,19.57
2022-11-28T07:04:44.687Z,18.07
2022-11-28T07:07:16.087Z,24.00
2022-11-28T07:09:44.234Z,18.33
2022-11-28T07:12:11.361Z,17.93
2022-11-28T07:14:38.425Z,14.17
2022-11-28T07:17:05.568Z,17.30
2022-11-28T07:19:32.625Z,14.83
2022-11-28T07:22:00.130Z,14.80
2022-11-28T07:24:30.161Z,15.77
2022-11-28T07:26:57.370Z,14.90
2022-11-28T07:29:24.706Z,17.27
2022-11-28T07:31:51.754Z,24.43
2022-11-28T07:34:18.670Z,18.23
2022-11-28T07:36:45.536Z,20.00
2022-11-28T07:39:16.128Z,16.07
2022-11-28T07:41:43.209Z,17.37
2022-11-28T07:44:11.379Z,18.80
2022-11-28T07:46:39.315Z,19.30
2022-11-28T07:49:06.255Z,19.43
2022-11-28T07:51:34.019Z,17.53
2022-11-28T07:54:02.127Z,19.97
2022-11-28T07:56:57.285Z,21.27
2022-11-28T07:59:19.035Z,17.10
2022-11-28T08:01:45.937Z,19.37
2022-11-28T08:04:12.872Z,17.97
2022-11-28T08:06:41.980Z,16.30
2022-11-28T08:09:09.342Z,20.83
2022-11-28T08:11:36.559Z,19.37
2022-11-28T08:14:04.463Z,16.73
2022-11-28T08:16:32.582Z,21.90
2022-11-28T08:19:03.266Z,19.73
2022-11-28T08:21:33.205Z,20.60
2022-11-28T08:24:02.036Z,16.03
2022-11-28T08:26:30.980Z,17.23
2022-11-28T08:28:59.910Z,16.83
2022-11-28T08:31:32.788Z,20.80
2022-11-28T08:34:01.544Z,17.57
2022-11-28T08:36:29.477Z,18.40
2022-11-28T08:39:16.583Z,18.53
2022-11-28T08:41:44.983Z,19.03
2022-11-28T08:44:11.875Z,18.53
2022-11-28T08:46:38.813Z,15.80
2022-11-28T08:49:05.715Z,17.73
2022-11-28T08:51:32.770Z,15.53
2022-11-28T08:54:00.330Z,16.33
2022-11-28T08:56:27.811Z,15.60
2022-11-28T08:58:55.221Z,17.03
2022-11-28T09:01:24.669Z,20.40
2022-11-28T09:03:52.703Z,16.00
2022-11-28T09:06:21.119Z,18.77
2022-11-28T09:08:49.875Z,14.97
2022-11-28T09:11:19.460Z,16.43
2022-11-28T09:13:46.419Z,14.70
2022-11-28T09:16:14.626Z,14.93
2022-11-28T09:18:41.654Z,14.73
2022-11-28T09:21:10.866Z,13.37
2022-11-28T09:23:39.700Z,17.63
2022-11-28T09:26:14.998Z,19.43
2022-11-28T09:28:42.628Z,15.73
2022-11-28T09:31:12.456Z,16.33
2022-11-28T09:33:39.739Z,13.93
2022-11-28T09:36:16.568Z,19.03
2022-11-28T09:38:43.838Z,12.98
2022-11-28T09:41:29.638Z,13.30
2022-11-28T09:44:07.018Z,10.97
2022-11-28T09:46:37.400Z,12.27
2022-11-28T09:49:25.417Z,11.73
2022-11-28T09:52:02.928Z,10.77
2022-11-28T09:54:49.085Z,12.73
2022-11-28T09:57:24.152Z,12.20
2022-11-28T09:59:51.075Z,11.80
2022-11-28T10:03:10.896Z,19.50
2022-11-28T10:05:58.554Z,15.17
2022-11-28T10:11:15.102Z,14.80
2022-11-28T10:14:19.122Z,13.80
2022-11-28T10:17:12.971Z,13.77
2022-11-28T10:19:54.446Z,15.03
2022-11-28T10:22:43.367Z,11.97
2022-11-28T10:25:22.785Z,12.33
2022-11-28T10:27:51.000Z,13.73
2022-11-28T10:30:27.182Z,11.57
2022-11-28T10:33:18.349Z,10.70
2022-11-28T10:35:51.783Z,9.40
2022-11-28T10:38:25.581Z,9.87
2022-11-28T10:41:14.554Z,11.23
2022-11-28T10:44:22.912Z,10.63
2022-11-28T10:47:06.973Z,10.40
2022-11-28T10:50:04.508Z,9.97
2022-11-28T10:52:44.580Z,9.88
2022-11-28T10:55:48.374Z,11.27
2022-11-28T10:58:27.501Z,7.70
2022-11-28T11:00:58.203Z,11.70
2022-11-28T11:03:31.438Z,9.57
2022-11-28T11:05:59.765Z,9.13
2022-11-28T11:08:29.628Z,10.60
2022-11-28T11:11:08.651Z,8.20
2022-11-28T11:13:58.958Z,8.70
2022-11-28T11:16:26.191Z,13.87
2022-11-28T11:18:55.254Z,13.07
2022-11-28T11:21:27.220Z,10.73
2022-11-28T11:24:16.710Z,14.47
2022-11-28T11:26:47.108Z,12.17
2022-11-28T11:29:31.036Z,12.13
2022-11-28T11:32:03.673Z,10.97
2022-11-28T11:34:36.893Z,11.67
2022-11-28T11:37:28.605Z,12.10
2022-11-28T11:39:55.659Z,11.30
2022-11-28T11:42:28.532Z,12.40
2022-11-28T11:44:56.536Z,13.20
2022-11-28T11:47:44.318Z,9.90
2022-11-28T11:50:20.683Z,12.13
2022-11-28T11:53:09.491Z,11.45
2022-11-28T11:55:58.395Z,11.03
2022-11-28T11:58:39.470Z,10.60
2022-11-28T12:01:08.080Z,13.93
2022-11-28T12:04:08.554Z,12.60
2022-11-28T12:06:51.570Z,10.57
2022-11-28T12:09:47.092Z,11.87
2022-11-28T12:12:23.038Z,14.47
2022-11-28T12:14:50.557Z,12.77
2022-11-28T12:17:47.929Z,12.63
2022-11-28T12:20:36.377Z,11.93
2022-11-28T12:23:32.423Z,15.30
2022-11-28T12:26:02.244Z,13.43
2022-11-28T12:28:59.708Z,14.97
2022-11-28T12:32:10.715Z,16.08
2022-11-28T12:34:56.041Z,16.03
2022-11-28T12:37:55.241Z,14.37
2022-11-28T12:40:46.713Z,14.90
2022-11-28T12:43:41.437Z,17.10
2022-11-28T12:46:42.345Z,15.67
2022-11-28T12:49:36.504Z,16.93
2022-11-28T12:52:18.611Z,14.27
2022-11-28T12:54:57.930Z,13.87
2022-11-28T12:57:42.774Z,14.77
2022-11-28T13:00:14.912Z,10.97
2022-11-28T13:02:57.429Z,12.40
2022-11-28T13:05:39.485Z,14.13
2022-11-28T13:08:43.274Z,14.63
2022-11-28T13:11:45.724Z,14.90
2022-11-28T13:14:21.319Z,17.87
2022-11-28T13:16:55.622Z,12.02
2022-11-28T13:19:51.298Z,13.67
2022-11-28T13:22:25.345Z,14.90
2022-11-28T13:25:19.220Z,12.87
2022-11-28T13:27:59.567Z,21.97
2022-11-28T13:30:29.464Z,16.47
2022-11-28T13:33:13.162Z,13.03
2022-11-28T13:35:45.200Z,14.40
2022-11-28T13:38:37.300Z,13.30
2022-11-28T13:42:05.876Z,12.23
2022-11-28T13:44:35.539Z,19.37
2022-11-28T13:47:25.038Z,16.70
2022-11-28T13:49:51.981Z,12.07
2022-11-28T13:52:18.915Z,13.93
2022-11-28T13:54:54.226Z,16.67
2022-11-28T13:57:28.692Z,12.57
2022-11-28T14:00:18.315Z,16.13
2022-11-28T14:03:00.051Z,18.93
2022-11-28T14:05:35.946Z,16.50
2022-11-28T14:08:04.903Z,14.70
2022-11-28T14:11:25.808Z,16.57
2022-11-28T14:14:04.039Z,17.40
2022-11-28T14:16:58.539Z,19.08
2022-11-28T14:19:38.244Z,13.47
2022-11-28T14:22:09.969Z,19.03
2022-11-28T14:24:55.409Z,13.77
2022-11-28T14:27:33.710Z,18.77
2022-11-28T14:30:01.765Z,16.50
2022-11-28T14:32:38.035Z,13.33
2022-11-28T14:35:15.490Z,13.30
2022-11-28T14:37:55.725Z,15.60
2022-11-28T14:40:57.007Z,15.97
2022-11-28T14:43:24.146Z,19.57
2022-11-28T14:45:52.861Z,15.50
2022-11-28T14:48:23.108Z,16.57
2022-11-28T14:51:00.579Z,14.30
2022-11-28T14:53:38.593Z,16.50
2022-11-28T14:56:14.433Z,16.35
2022-11-28T14:58:49.384Z,21.52
2022-11-28T15:01:28.739Z,17.67
2022-11-28T15:04:14.494Z,18.87
2022-11-28T15:06:43.585Z,21.07
2022-11-28T15:09:13.863Z,20.87
2022-11-28T15:12:14.059Z,18.73
2022-11-28T15:14:42.660Z,16.43
2022-11-28T15:17:13.885Z,19.33
2022-11-28T15:19:47.785Z,18.00
2022-11-28T15:22:41.417Z,16.47
2022-11-28T15:25:23.967Z,14.90
2022-11-28T15:27:51.665Z,14.70
2022-11-28T15:30:26.471Z,14.77
2022-11-28T15:32:58.868Z,15.80
2022-11-28T15:35:26.870Z,16.13
2022-11-28T15:37:58.177Z,15.13
2022-11-28T15:40:32.783Z,14.57
2022-11-28T15:43:02.291Z,17.63
2022-11-28T15:45:32.422Z,13.60
2022-11-28T15:47:59.541Z,12.57
2022-11-28T15:50:29.627Z,10.60
2022-11-28T15:53:18.133Z,13.17
2022-11-28T15:55:46.235Z,13.27
2022-11-28T15:58:21.739Z,12.73
2022-11-28T16:00:58.331Z,13.93
2022-11-28T16:03:29.640Z,13.43
2022-11-28T16:05:59.234Z,15.53
2022-11-28T16:08:34.834Z,12.60
2022-11-28T16:11:05.767Z,11.68
2022-11-28T16:13:34.251Z,13.80
2022-11-28T16:16:04.264Z,15.00
2022-11-28T16:18:31.873Z,11.57
2022-11-28T16:21:01.271Z,10.90
2022-11-28T16:23:36.322Z,10.97
2022-11-28T16:26:29.684Z,13.40
2022-11-28T16:29:17.135Z,14.50
2022-11-28T16:31:44.770Z,12.60
2022-11-28T16:34:15.048Z,11.20
2022-11-28T16:36:50.193Z,13.10
2022-11-28T16:39:18.082Z,10.77
2022-11-28T16:42:04.935Z,12.97
2022-11-28T16:44:33.668Z,10.07
2022-11-28T16:47:01.137Z,11.53
2022-11-28T16:49:51.600Z,9.13
2022-11-28T16:52:21.738Z,14.20
2022-11-28T16:54:49.655Z,10.33
2022-11-28T16:57:17.591Z,10.90
2022-11-28T16:59:45.214Z,11.53
2022-11-28T17:02:24.581Z,10.27
2022-11-28T17:04:53.268Z,10.47
2022-11-28T17:07:23.591Z,10.00
2022-11-28T17:09:51.244Z,9.43
2022-11-28T17:12:27.705Z,9.67
2022-11-28T17:14:55.804Z,8.20
2022-11-28T17:17:23.843Z,9.50
2022-11-28T17:19:51.905Z,10.00
2022-11-28T17:22:22.283Z,9.87
2022-11-28T17:24:55.630Z,10.00
2022-11-28T17:27:22.824Z,9.70
2022-11-28T17:29:49.882Z,11.13
2022-11-28T17:32:17.197Z,11.97
2022-11-28T17:34:46.181Z,12.83
2022-11-28T17:37:13.344Z,12.17
2022-11-28T17:40:00.751Z,10.80
2022-11-28T17:42:27.908Z,14.05
2022-11-28T17:44:55.085Z,12.00
2022-11-28T17:47:23.896Z,11.30
2022-11-28T17:49:51.332Z,11.20
2022-11-28T17:52:20.350Z,10.27
2022-11-28T17:54:49.380Z,10.30
2022-11-28T17:57:16.479Z,9.27
2022-11-28T17:59:43.587Z,10.03
2022-11-28T18:02:13.525Z,11.93
2022-11-28T18:04:41.197Z,12.10
2022-11-28T18:07:09.053Z,13.47
2022-11-28T18:09:36.240Z,13.53
2022-11-28T18:12:03.562Z,13.23
2022-11-28T18:14:36.580Z,10.20
2022-11-28T18:17:07.012Z,11.63
2022-11-28T18:19:34.270Z,12.83
2022-11-28T18:22:01.824Z,11.30
2022-11-28T18:24:28.867Z,14.20
2022-11-28T18:26:56.018Z,11.23
2022-11-28T18:29:22.940Z,11.77
2022-11-28T18:31:50.498Z,11.43
2022-11-28T18:34:17.571Z,12.53
2022-11-28T18:36:45.148Z,11.33
2022-11-28T18:39:14.649Z,13.07
2022-11-28T18:41:42.386Z,12.13
2022-11-28T18:44:11.108Z,11.43
2022-11-28T18:46:40.375Z,11.70
2022-11-28T18:49:08.505Z,9.80
2022-11-28T18:51:35.832Z,11.20
2022-11-28T18:54:05.235Z,9.37
2022-11-28T18:56:35.704Z,10.93
2022-11-28T18:59:04.303Z,12.57
2022-11-28T19:01:34.091Z,11.60
2022-11-28T19:04:11.648Z,11.20
2022-11-28T19:06:40.789Z,8.57
2022-11-28T19:09:11.583Z,9.53
2022-11-28T19:11:40.457Z,11.90
2022-11-28T19:14:08.112Z,10.73
2022-11-28T19:16:37.803Z,15.73
2022-11-28T19:19:06.209Z,9.97
2022-11-28T19:21:36.337Z,9.23
2022-11-28T19:24:04.300Z,9.53
2022-11-28T19:26:33.558Z,8.87
2022-11-28T19:29:01.778Z,8.07
2022-11-28T19:31:33.065Z,8.80
2022-11-28T19:34:14.060Z,10.80
2022-11-28T19:36:43.484Z,8.60
2022-11-28T19:39:22.361Z,11.27
2022-11-28T19:41:51.423Z,11.20
2022-11-28T19:44:21.209Z,9.60
2022-11-28T19:46:50.630Z,9.27
2022-11-28T19:49:20.162Z,8.50
2022-11-28T19:51:49.455Z,9.17
2022-11-28T19:54:21.963Z,7.90
2022-11-28T19:56:49.529Z,10.33
2022-11-28T19:59:17.231Z,10.47
2022-11-28T20:01:44.402Z,9.23
2022-11-28T20:04:12.364Z,9.17
2022-11-28T20:06:39.311Z,10.03
2022-11-28T20:09:09.307Z,8.03
2022-11-28T20:11:41.900Z,8.73
2022-11-28T20:14:19.026Z,9.03
2022-11-28T20:16:46.940Z,10.95
2022-11-28T20:19:15.715Z,12.13
2022-11-28T20:21:44.909Z,11.73
2022-11-28T20:24:12.347Z,11.40
2022-11-28T20:26:42.566Z,10.00
2022-11-28T20:29:13.622Z,8.80
2022-11-28T20:31:46.913Z,9.90
2022-11-28T20:34:17.860Z,9.60
2022-11-28T20:36:46.259Z,9.57
2022-11-28T20:39:13.527Z,9.93
2022-11-28T20:41:40.560Z,10.33
2022-11-28T20:44:07.609Z,8.60
2022-11-28T20:46:35.662Z,8.97
2022-11-28T20:49:05.640Z,9.20
2022-11-28T20:51:34.567Z,10.27
2022-11-28T20:54:04.798Z,8.70
2022-11-28T20:56:46.487Z,11.33
2022-11-28T20:59:22.027Z,9.43
2022-11-28T21:01:49.077Z,8.90
2022-11-28T21:04:17.754Z,10.80
2022-11-28T21:06:47.268Z,10.07
2022-11-28T21:09:15.345Z,10.33
2022-11-28T21:11:56.690Z,10.13
2022-11-28T21:14:25.599Z,16.50
2022-11-28T21:16:52.580Z,11.97
2022-11-28T21:19:19.534Z,9.30
2022-11-28T21:21:46.500Z,8.80
2022-11-28T21:24:14.226Z,10.83
2022-11-28T21:26:46.578Z,9.83
2022-11-28T21:29:15.092Z,9.50
2022-11-28T21:31:44.249Z,12.93
2022-11-28T21:34:15.660Z,13.20
2022-11-28T21:36:43.692Z,11.63
2022-11-28T21:39:14.202Z,11.77
2022-11-28T21:41:41.292Z,13.53
2022-11-28T21:44:09.034Z,10.20
2022-11-28T21:46:35.993Z,12.80
2022-11-28T21:49:02.970Z,10.77
2022-11-28T21:51:29.898Z,10.83
2022-11-28T21:54:00.319Z,11.70
2022-11-28T21:56:27.489Z,14.13
2022-11-28T21:58:54.923Z,12.13
2022-11-28T22:01:24.362Z,11.83
2022-11-28T22:03:53.462Z,12.33
2022-11-28T22:06:25.043Z,13.50
2022-11-28T22:08:53.761Z,13.07
2022-11-28T22:11:22.157Z,12.97
2022-11-28T22:13:49.587Z,12.90
2022-11-28T22:16:22.148Z,12.23
2022-11-28T22:18:50.752Z,13.37
2022-11-28T22:26:33.227Z,11.02
2022-11-28T22:29:01.163Z,9.97
2022-11-28T22:31:28.290Z,14.80
2022-11-28T22:33:55.718Z,14.73
2022-11-28T22:36:23.734Z,13.03
2022-11-28T22:38:55.908Z,12.00
2022-11-28T22:41:28.788Z,12.80
2022-11-28T22:44:01.185Z,11.80
2022-11-28T22:46:30.773Z,13.00
2022-11-28T22:49:00.720Z,13.40
2022-11-28T22:51:29.028Z,12.50
2022-11-28T22:53:58.314Z,14.23
2022-11-28T22:56:27.804Z,13.60
2022-11-28T22:58:55.230Z,12.63
2022-11-28T23:01:26.107Z,14.33
2022-11-28T23:03:54.362Z,11.77
2022-11-28T23:06:28.464Z,14.10
2022-11-28T23:08:57.166Z,15.03
2022-11-28T23:11:29.398Z,12.80
2022-11-28T23:13:57.040Z,13.27
2022-11-28T23:16:27.612Z,12.00
2022-11-28T23:18:56.943Z,15.37
2022-11-28T23:21:25.905Z,14.80
2022-11-28T23:23:54.001Z,14.47
2022-11-28T23:26:24.421Z,14.10
2022-11-28T23:28:53.007Z,14.17
2022-11-28T23:31:24.266Z,13.80
2022-11-28T23:33:52.069Z,13.00
2022-11-28T23:36:21.928Z,14.30
2022-11-28T23:38:51.968Z,14.27
2022-11-28T23:41:19.278Z,12.60
2022-11-28T23:43:46.876Z,12.53
2022-11-28T23:46:15.955Z,11.50
2022-11-28T23:48:46.284Z,16.43
2022-11-28T23:51:14.582Z,11.60
2022-11-28T23:53:42.234Z,12.93
2022-11-28T23:56:12.965Z,12.90
2022-11-28T23:58:40.457Z,12.50
